Time;durP1;ratioP1;P1;durP2;ratioP2;P2;SDS_P1;SDS_P2;PMS_P1;PMS_P2;Temp;Humidity;BMP_temperature;BMP_pressure;BME280_temperature;BME280_humidity;BME280_pressure;Samples;Min_cycle;Max_cycle;Signal;HPM_P1;HPM_P2
2021/06/11 00:01:40;;;;;;;32.67;21.20;;;;;;;;;;5291368;27;20385;-86
2021/06/11 00:04:12;;;;;;;38.17;22.10;;;;;;;;;;5287111;27;20051;-85
2021/06/11 00:06:42;;;;;;;35.72;20.77;;;;;;;;;;5285049;27;20480;-85
2021/06/11 00:09:17;;;;;;;39.55;32.95;;;;;;;;;;5289790;27;20021;-86
2021/06/11 00:11:48;;;;;;;40.97;31.65;;;;;;;;;;5288621;27;20046;-85
2021/06/11 00:14:19;;;;;;;45.83;32.33;;;;;;;;;;5266343;27;20505;-86
2021/06/11 00:16:51;;;;;;;42.65;30.85;;;;;;;;;;5284650;27;20037;-85
2021/06/11 00:19:22;;;;;;;42.70;31.15;;;;;;;;;;5292742;27;20040;-85
2021/06/11 00:21:53;;;;;;;40.90;30.77;;;;;;;;;;5293588;27;20021;-86
2021/06/11 00:24:24;;;;;;;34.55;30.67;;;;;;;;;;5292621;27;20049;-85
2021/06/11 00:26:54;;;;;;;39.25;31.17;;;;;;;;;;5288418;27;20891;-86
2021/06/11 00:29:25;;;;;;;34.75;30.70;;;;;;;;;;5287585;27;20538;-86
2021/06/11 00:31:56;;;;;;;39.38;32.00;;;;;;;;;;5294606;27;20372;-86
2021/06/11 00:34:27;;;;;;;33.00;24.65;;;;;;;;;;5288288;27;20296;-86
2021/06/11 00:36:55;;;;;;;33.22;24.00;;;;;;;;;;5285378;27;20556;-85
2021/06/11 00:39:24;;;;;;;34.00;24.37;;;;;;;;;;5289561;27;20056;-85
2021/06/11 00:42:00;;;;;;;39.50;22.58;;;;;;;;;;5284522;27;20064;-85
2021/06/11 00:44:30;;;;;;;34.22;21.75;;;;;;;;;;5284172;27;20434;-85
2021/06/11 00:47:01;;;;;;;46.53;34.55;;;;;;;;;;5288307;27;20437;-85
2021/06/11 00:49:32;;;;;;;46.70;34.50;;;;;;;;;;5272647;27;20106;-86
2021/06/11 00:52:08;;;;;;;43.35;34.25;;;;;;;;;;5287830;27;20408;-85
2021/06/11 00:54:40;;;;;;;45.42;34.45;;;;;;;;;;5285748;27;20061;-85
2021/06/11 00:57:12;;;;;;;39.47;34.35;;;;;;;;;;5287993;27;20026;-85
2021/06/11 00:59:45;;;;;;;42.78;32.78;;;;;;;;;;5274041;27;20037;-86
2021/06/11 01:02:17;;;;;;;41.60;32.60;;;;;;;;;;5286875;27;20051;-86
2021/06/11 01:04:47;;;;;;;38.92;30.83;;;;;;;;;;5281490;27;20049;-86
2021/06/11 01:07:19;;;;;;;45.38;30.40;;;;;;;;;;5286822;27;20056;-86
2021/06/11 01:09:51;;;;;;;29.95;21.80;;;;;;;;;;5287443;27;20053;-86
2021/06/11 01:12:23;;;;;;;30.45;23.42;;;;;;;;;;5279311;27;20058;-85
2021/06/11 01:14:54;;;;;;;31.05;21.55;;;;;;;;;;5280390;27;20454;-86
2021/06/11 01:17:25;;;;;;;34.28;20.95;;;;;;;;;;5284872;27;20061;-85
2021/06/11 01:19:56;;;;;;;30.60;24.80;;;;;;;;;;5280962;27;20040;-85
2021/06/11 01:22:34;;;;;;;38.22;23.67;;;;;;;;;;5277776;27;20718;-85
2021/06/11 01:25:10;;;;;;;39.22;30.50;;;;;;;;;;5284881;27;20057;-86
2021/06/11 01:27:42;;;;;;;40.08;30.17;;;;;;;;;;5286049;27;20091;-86
2021/06/11 01:30:19;;;;;;;33.80;23.75;;;;;;;;;;5265185;27;20039;-85
2021/06/11 01:32:52;;;;;;;31.10;23.80;;;;;;;;;;5282482;27;20035;-85
2021/06/11 01:35:25;;;;;;;38.70;24.35;;;;;;;;;;5289286;27;20028;-85
2021/06/11 01:37:57;;;;;;;32.05;23.55;;;;;;;;;;5286607;27;20085;-85
2021/06/11 01:40:26;;;;;;;32.63;23.85;;;;;;;;;;5278966;27;20497;-85
2021/06/11 01:42:59;;;;;;;38.53;24.08;;;;;;;;;;5280069;27;20426;-85
2021/06/11 01:45:31;;;;;;;28.40;23.62;;;;;;;;;;5282061;27;20045;-85
2021/06/11 01:48:02;;;;;;;27.73;23.35;;;;;;;;;;5283924;27;20368;-85
2021/06/11 01:50:36;;;;;;;32.25;24.30;;;;;;;;;;5278732;27;20347;-85
2021/06/11 01:53:12;;;;;;;33.05;23.33;;;;;;;;;;5286208;27;20025;-86
2021/06/11 01:55:44;;;;;;;43.28;24.12;;;;;;;;;;5287265;27;20051;-85
2021/06/11 01:58:17;;;;;;;35.65;22.92;;;;;;;;;;5280686;27;20076;-86
2021/06/11 02:00:48;;;;;;;31.40;23.15;;;;;;;;;;5283013;27;20820;-86
2021/06/11 02:03:20;;;;;;;44.28;23.35;;;;;;;;;;5284350;27;20070;-85
2021/06/11 02:05:52;;;;;;;38.10;23.95;;;;;;;;;;5279889;27;20074;-85
2021/06/11 02:08:24;;;;;;;30.37;23.87;;;;;;;;;;5276265;27;20048;-85
2021/06/11 02:10:57;;;;;;;36.20;24.17;;;;;;;;;;5246023;27;20245;-85
2021/06/11 02:13:28;;;;;;;33.63;23.90;;;;;;;;;;5284345;27;20045;-85
2021/06/11 02:15:59;;;;;;;33.13;23.23;;;;;;;;;;5266692;27;20020;-86
2021/06/11 02:18:33;;;;;;;31.70;24.27;;;;;;;;;;5284850;27;20051;-85
2021/06/11 02:21:08;;;;;;;29.20;24.35;;;;;;;;;;5284776;27;20041;-85
2021/06/11 02:23:38;;;;;;;29.50;23.10;;;;;;;;;;5287578;27;20033;-85
2021/06/11 02:26:10;;;;;;;32.75;23.67;;;;;;;;;;5286229;27;20107;-85
2021/06/11 02:28:39;;;;;;;32.33;24.02;;;;;;;;;;5281087;27;20034;-85
2021/06/11 02:31:12;;;;;;;28.73;23.45;;;;;;;;;;5287754;27;20033;-85
2021/06/11 02:33:44;;;;;;;34.92;23.80;;;;;;;;;;5288589;27;20481;-85
2021/06/11 02:36:15;;;;;;;28.70;23.42;;;;;;;;;;5284653;27;20058;-85
2021/06/11 02:38:46;;;;;;;35.28;23.83;;;;;;;;;;5267124;27;20065;-86
2021/06/11 02:41:22;;;;;;;29.92;22.65;;;;;;;;;;5290157;27;20033;-85
2021/06/11 02:43:54;;;;;;;31.75;23.60;;;;;;;;;;5281822;27;20017;-85
2021/06/11 02:46:35;;;;;;;27.85;23.12;;;;;;;;;;5282678;27;20414;-85
2021/06/11 02:49:13;;;;;;;26.73;22.80;;;;;;;;;;5289121;27;20046;-85
2021/06/11 02:51:46;;;;;;;33.65;23.80;;;;;;;;;;5258730;27;20049;-85
2021/06/11 02:54:18;;;;;;;30.17;22.98;;;;;;;;;;5265225;27;20035;-85
2021/06/11 02:57:03;;;;;;;34.42;23.62;;;;;;;;;;5263751;27;20052;-85
2021/06/11 02:59:36;;;;;;;40.50;25.20;;;;;;;;;;5260433;27;20053;-86
2021/06/11 03:02:12;;;;;;;30.77;22.37;;;;;;;;;;5263937;27;20050;-85
2021/06/11 03:04:45;;;;;;;33.75;21.17;;;;;;;;;;5266708;27;20024;-84
2021/06/11 03:07:24;;;;;;;34.65;20.95;;;;;;;;;;5262222;27;20049;-85
2021/06/11 03:09:57;;;;;;;35.65;21.23;;;;;;;;;;5260638;27;20064;-85
2021/06/11 03:12:43;;;;;;;33.63;21.30;;;;;;;;;;5261224;27;20064;-94
2021/06/11 03:20:07;;;;;;;31.52;21.40;;;;;;;;;;5200036;27;20094;-94
2021/06/11 03:24:02;;;;;;;;;;;;;;;;;;;;;
2021/06/11 03:28:08;;;;;;;31.98;23.58;;;;;;;;;;5141447;27;20079;-94
2021/06/11 03:31:38;;;;;;;42.83;23.52;;;;;;;;;;5162040;27;20445;-95
2021/06/11 03:35:08;;;;;;;;;;;;;;;;;;5176644;27;20081;-93
2021/06/11 03:38:25;;;;;;;36.17;22.48;;;;;;;;;;5154100;27;19942;-94
2021/06/11 03:42:21;;;;;;;41.10;22.75;;;;;;;;;;5181874;27;20036;-95
2021/06/11 03:53:59;;;;;;;38.70;21.75;;;;;;;;;;5212224;27;20039;-95
2021/06/11 04:02:10;;;;;;;28.42;20.25;;;;;;;;;;5136806;27;20020;-94
2021/06/11 04:06:10;;;;;;;;;;;;;;;;;;;;;
2021/06/11 04:10:01;;;;;;;;;;;;;;;;;;;;;
2021/06/11 04:13:48;;;;;;;38.83;21.30;;;;;;;;;;5180422;27;20049;-95
2021/06/11 04:17:18;;;;;;;49.13;21.67;;;;;;;;;;5130099;27;20034;-93
2021/06/11 04:21:28;;;;;;;36.55;21.70;;;;;;;;;;5053282;28;20060;-95
2021/06/11 04:24:38;;;;;;;38.67;20.35;;;;;;;;;;5096920;28;20701;-94
2021/06/11 04:27:36;;;;;;;34.30;20.42;;;;;;;;;;5096536;28;20071;-94
2021/06/11 04:30:32;;;;;;;40.05;21.12;;;;;;;;;;5130084;28;20033;-96
2021/06/11 04:33:37;;;;;;;30.10;19.97;;;;;;;;;;5112423;28;20074;-94
2021/06/11 04:36:40;;;;;;;49.35;21.95;;;;;;;;;;5246371;27;20049;-96
2021/06/11 04:39:57;;;;;;;42.78;21.02;;;;;;;;;;5227722;27;20109;-94
2021/06/11 04:42:50;;;;;;;30.65;20.62;;;;;;;;;;5229801;27;20017;-95
2021/06/11 04:46:00;;;;;;;34.20;20.42;;;;;;;;;;5225710;27;20040;-94
2021/06/11 04:49:43;;;;;;;;;;;;;;;;;;;;;
2021/06/11 04:53:10;;;;;;;39.65;21.95;;;;;;;;;;5217621;27;20262;-95
2021/06/11 04:56:07;;;;;;;;;;;;;;;;;;;;;
2021/06/11 04:58:54;;;;;;;32.90;19.52;;;;;;;;;;5240079;27;20034;-93
2021/06/11 05:01:47;;;;;;;33.97;18.90;;;;;;;;;;5222912;27;20030;-94
2021/06/11 05:04:31;;;;;;;28.73;19.00;;;;;;;;;;5221506;27;20093;-94
2021/06/11 05:07:20;;;;;;;35.05;19.05;;;;;;;;;;5223315;27;20050;-95
2021/06/11 05:09:55;;;;;;;33.97;19.20;;;;;;;;;;5219418;27;20076;-93
2021/06/11 05:13:06;;;;;;;28.65;18.77;;;;;;;;;;5225822;27;20038;-95
2021/06/11 05:16:07;;;;;;;32.60;19.67;;;;;;;;;;5226049;27;20128;-94
2021/06/11 05:19:07;;;;;;;29.58;19.10;;;;;;;;;;5225753;27;20022;-94
2021/06/11 05:22:09;;;;;;;44.72;19.87;;;;;;;;;;5200494;27;20390;-95
2021/06/11 05:25:05;;;;;;;29.33;18.83;;;;;;;;;;5222476;27;20064;-85
2021/06/11 05:27:36;;;;;;;31.83;18.73;;;;;;;;;;5222827;27;20036;-85
2021/06/11 05:30:07;;;;;;;37.80;19.55;;;;;;;;;;5225692;27;20024;-85
2021/06/11 05:32:39;;;;;;;44.58;18.05;;;;;;;;;;5226791;27;20034;-85
2021/06/11 05:35:11;;;;;;;49.92;19.27;;;;;;;;;;5217619;27;20076;-85
2021/06/11 05:37:42;;;;;;;33.22;18.60;;;;;;;;;;5200204;27;20050;-85
2021/06/11 05:40:12;;;;;;;32.75;18.80;;;;;;;;;;5222562;27;20418;-85
2021/06/11 05:42:44;;;;;;;43.00;18.67;;;;;;;;;;5220214;27;20035;-85
2021/06/11 05:45:15;;;;;;;33.55;18.35;;;;;;;;;;5219477;27;20060;-85
2021/06/11 05:47:47;;;;;;;32.85;17.70;;;;;;;;;;5203272;27;20351;-85
2021/06/11 05:50:19;;;;;;;43.38;28.05;;;;;;;;;;5204976;27;20026;-85
2021/06/11 05:52:50;;;;;;;41.05;28.05;;;;;;;;;;5218989;27;20042;-85
2021/06/11 05:55:21;;;;;;;43.90;25.42;;;;;;;;;;5199266;27;20026;-85
2021/06/11 05:57:52;;;;;;;49.50;22.45;;;;;;;;;;5218046;27;20411;-85
2021/06/11 06:00:24;;;;;;;43.38;19.83;;;;;;;;;;5220460;27;20067;-86
2021/06/11 06:02:55;;;;;;;41.28;20.92;;;;;;;;;;5220494;27;20061;-85
2021/06/11 06:05:26;;;;;;;41.42;20.35;;;;;;;;;;5217360;27;20494;-85
2021/06/11 06:07:57;;;;;;;48.97;21.25;;;;;;;;;;5215864;27;20050;-85
2021/06/11 06:10:27;;;;;;;52.50;24.58;;;;;;;;;;5221785;27;20052;-86
2021/06/11 06:12:58;;;;;;;50.08;23.20;;;;;;;;;;5222028;27;20030;-85
2021/06/11 06:15:31;;;;;;;48.90;17.65;;;;;;;;;;5219363;27;20022;-86
2021/06/11 06:18:03;;;;;;;45.33;16.70;;;;;;;;;;5223488;27;20100;-85
2021/06/11 06:20:33;;;;;;;34.05;16.65;;;;;;;;;;5220917;27;20409;-85
2021/06/11 06:23:04;;;;;;;48.50;17.27;;;;;;;;;;5221494;27;20057;-85
2021/06/11 06:25:35;;;;;;;44.63;15.85;;;;;;;;;;5239234;27;20132;-85
2021/06/11 06:28:06;;;;;;;47.03;15.60;;;;;;;;;;5220226;27;20046;-85
2021/06/11 06:30:37;;;;;;;46.78;23.15;;;;;;;;;;5239136;27;20104;-85
2021/06/11 06:33:08;;;;;;;44.95;19.10;;;;;;;;;;5242111;27;20034;-86
2021/06/11 06:35:39;;;;;;;45.38;19.52;;;;;;;;;;5243416;27;20038;-86
2021/06/11 06:38:13;;;;;;;45.67;20.02;;;;;;;;;;5245570;27;20478;-85
2021/06/11 06:40:48;;;;;;;44.03;19.75;;;;;;;;;;5244106;27;20506;-86
2021/06/11 06:43:19;;;;;;;39.10;19.87;;;;;;;;;;5228083;27;20021;-84
2021/06/11 06:45:50;;;;;;;42.30;20.42;;;;;;;;;;5244122;27;20048;-85
2021/06/11 06:48:21;;;;;;;41.85;22.25;;;;;;;;;;5247293;27;20026;-86
2021/06/11 06:50:55;;;;;;;40.33;22.73;;;;;;;;;;5247218;27;20395;-85
2021/06/11 06:53:27;;;;;;;42.67;19.67;;;;;;;;;;5243022;27;20057;-84
2021/06/11 06:55:57;;;;;;;47.67;18.30;;;;;;;;;;5243767;27;20275;-85
2021/06/11 06:58:28;;;;;;;36.35;16.67;;;;;;;;;;5245886;27;20054;-85
2021/06/11 07:00:59;;;;;;;37.15;16.37;;;;;;;;;;5245254;27;20076;-85
2021/06/11 07:03:35;;;;;;;35.28;19.35;;;;;;;;;;5244256;27;20190;-85
2021/06/11 07:06:06;;;;;;;38.70;23.15;;;;;;;;;;5241630;27;20091;-86
2021/06/11 07:08:35;;;;;;;44.00;33.58;;;;;;;;;;5246931;27;20030;-86
2021/06/11 07:11:11;;;;;;;47.62;33.33;;;;;;;;;;5249287;27;20063;-86
2021/06/11 07:13:42;;;;;;;43.38;31.10;;;;;;;;;;5246348;27;20053;-86
2021/06/11 07:16:13;;;;;;;46.65;30.20;;;;;;;;;;5241297;27;20070;-86
2021/06/11 07:18:44;;;;;;;37.13;23.65;;;;;;;;;;5246521;27;20049;-86
2021/06/11 07:21:14;;;;;;;28.35;19.27;;;;;;;;;;5253102;27;20397;-86
2021/06/11 07:23:45;;;;;;;30.73;18.77;;;;;;;;;;5250257;27;20255;-86
2021/06/11 07:26:16;;;;;;;35.33;15.13;;;;;;;;;;5249769;27;20057;-85
2021/06/11 07:28:47;;;;;;;31.37;15.98;;;;;;;;;;5245545;27;20028;-86
2021/06/11 07:31:18;;;;;;;28.35;14.23;;;;;;;;;;5252406;27;20024;-86
2021/06/11 07:33:49;;;;;;;21.58;8.15;;;;;;;;;;5245716;27;20060;-86
2021/06/11 07:36:18;;;;;;;27.05;7.82;;;;;;;;;;5245201;27;20349;-86
2021/06/11 07:38:48;;;;;;;22.27;5.37;;;;;;;;;;5251958;27;20025;-86
2021/06/11 07:41:21;;;;;;;15.15;3.97;;;;;;;;;;5243965;27;20424;-86
2021/06/11 07:43:53;;;;;;;21.50;4.85;;;;;;;;;;5244849;27;20044;-86
2021/06/11 07:46:24;;;;;;;21.42;4.53;;;;;;;;;;5232259;27;20026;-86
2021/06/11 07:48:56;;;;;;;19.27;4.22;;;;;;;;;;5248292;27;20018;-86
2021/06/11 07:51:27;;;;;;;22.70;4.53;;;;;;;;;;5250362;27;20428;-86
2021/06/11 07:53:58;;;;;;;15.63;4.80;;;;;;;;;;5240653;27;20049;-86
2021/06/11 07:56:29;;;;;;;19.80;4.62;;;;;;;;;;5248494;27;20037;-86
2021/06/11 07:59:00;;;;;;;24.60;5.07;;;;;;;;;;5248114;27;20022;-86
2021/06/11 08:01:34;;;;;;;18.40;4.15;;;;;;;;;;5243415;27;20048;-86
2021/06/11 08:04:05;;;;;;;21.25;4.90;;;;;;;;;;5242679;27;20060;-86
2021/06/11 08:06:36;;;;;;;19.20;4.80;;;;;;;;;;5249418;27;20125;-86
2021/06/11 08:09:10;;;;;;;23.38;4.93;;;;;;;;;;5246175;27;20069;-86
2021/06/11 08:11:41;;;;;;;20.02;4.85;;;;;;;;;;5241041;27;20049;-86
2021/06/11 08:14:13;;;;;;;24.58;5.05;;;;;;;;;;5241985;27;20049;-88
2021/06/11 08:16:43;;;;;;;16.35;4.47;;;;;;;;;;5248405;27;20087;-86
2021/06/11 08:19:15;;;;;;;15.63;4.20;;;;;;;;;;5245704;27;20420;-87
2021/06/11 08:21:46;;;;;;;16.00;4.47;;;;;;;;;;5242208;27;20056;-86
2021/06/11 08:24:17;;;;;;;14.50;4.03;;;;;;;;;;5244408;27;20118;-86
2021/06/11 08:26:48;;;;;;;18.90;4.32;;;;;;;;;;5253345;27;20044;-88
2021/06/11 08:29:23;;;;;;;15.90;4.10;;;;;;;;;;5242350;27;20575;-86
2021/06/11 08:31:54;;;;;;;14.02;4.07;;;;;;;;;;5240887;27;20050;-86
2021/06/11 08:34:26;;;;;;;19.62;4.47;;;;;;;;;;5230498;27;20485;-87
2021/06/11 08:37:00;;;;;;;18.20;4.22;;;;;;;;;;5247749;27;20033;-87
2021/06/11 08:39:35;;;;;;;16.92;4.32;;;;;;;;;;5240341;27;20022;-85
2021/06/11 08:42:10;;;;;;;16.45;4.47;;;;;;;;;;5244428;27;20571;-84
2021/06/11 08:44:45;;;;;;;19.48;4.72;;;;;;;;;;5243077;27;20510;-84
2021/06/11 08:47:16;;;;;;;15.48;4.37;;;;;;;;;;5245474;27;20032;-85
2021/06/11 08:49:47;;;;;;;15.20;4.55;;;;;;;;;;5243501;27;20080;-84
2021/06/11 08:52:18;;;;;;;19.17;4.53;;;;;;;;;;5242429;27;20279;-85
2021/06/11 08:54:52;;;;;;;15.63;4.25;;;;;;;;;;5227284;27;20064;-85
2021/06/11 08:57:24;;;;;;;16.15;4.20;;;;;;;;;;5244545;27;20396;-85
2021/06/11 08:59:56;;;;;;;18.73;4.32;;;;;;;;;;5243105;27;20447;-84
2021/06/11 09:02:27;;;;;;;15.80;4.50;;;;;;;;;;5245504;27;20228;-85
2021/06/11 09:04:59;;;;;;;13.77;4.18;;;;;;;;;;5243879;27;20041;-84
2021/06/11 09:07:34;;;;;;;14.82;4.40;;;;;;;;;;5246823;27;20047;-84
2021/06/11 09:10:07;;;;;;;13.98;4.15;;;;;;;;;;5246004;27;20053;-85
2021/06/11 09:12:41;;;;;;;16.77;4.53;;;;;;;;;;5246078;27;20065;-84
2021/06/11 09:15:14;;;;;;;16.58;4.82;;;;;;;;;;5251435;27;20029;-85
2021/06/11 09:17:46;;;;;;;16.60;4.12;;;;;;;;;;5247583;27;20090;-86
2021/06/11 09:20:19;;;;;;;14.07;3.97;;;;;;;;;;5246690;27;20167;-85
2021/06/11 09:22:51;;;;;;;14.45;4.35;;;;;;;;;;5250566;27;20025;-85
2021/06/11 09:25:23;;;;;;;13.88;4.12;;;;;;;;;;5251909;27;20032;-86
2021/06/11 09:27:59;;;;;;;16.40;4.15;;;;;;;;;;5247777;27;20075;-85
2021/06/11 09:30:45;;;;;;;17.05;4.68;;;;;;;;;;5247046;27;20036;-85
2021/06/11 09:33:18;;;;;;;14.85;4.22;;;;;;;;;;5249445;27;20026;-85
2021/06/11 09:35:50;;;;;;;13.93;3.95;;;;;;;;;;5252179;27;20427;-85
2021/06/11 09:38:29;;;;;;;16.20;4.32;;;;;;;;;;5225622;27;20188;-85
2021/06/11 09:41:02;;;;;;;14.50;4.25;;;;;;;;;;5244238;27;20041;-85
2021/06/11 09:43:32;;;;;;;19.33;4.45;;;;;;;;;;5246379;27;20451;-85
2021/06/11 09:46:12;;;;;;;17.67;4.57;;;;;;;;;;5228300;27;20030;-86
2021/06/11 09:48:45;;;;;;;15.40;4.32;;;;;;;;;;5248966;27;20046;-85
2021/06/11 09:51:17;;;;;;;13.62;4.32;;;;;;;;;;5251208;27;20423;-85
2021/06/11 09:53:47;;;;;;;16.90;4.18;;;;;;;;;;5249622;27;20076;-85
2021/06/11 09:56:22;;;;;;;16.55;4.55;;;;;;;;;;5245730;27;20092;-85
2021/06/11 09:58:54;;;;;;;17.20;4.35;;;;;;;;;;5246596;27;20956;-85
2021/06/11 10:01:26;;;;;;;19.30;4.60;;;;;;;;;;5250759;27;20052;-85
2021/06/11 10:03:58;;;;;;;;;;;;;;;;;;5250855;27;20030;-85
2021/06/11 10:06:30;;;;;;;17.77;4.20;;;;;;;;;;5251018;27;20280;-86
2021/06/11 10:09:01;;;;;;;17.62;4.07;;;;;;;;;;5248709;27;20051;-85
2021/06/11 10:11:32;;;;;;;18.05;4.60;;;;;;;;;;5249844;27;20056;-86
2021/06/11 10:14:04;;;;;;;15.55;4.55;;;;;;;;;;5249426;27;20060;-85
2021/06/11 10:16:34;;;;;;;15.25;4.30;;;;;;;;;;5248839;27;20070;-85
2021/06/11 10:19:06;;;;;;;14.32;4.72;;;;;;;;;;5249147;27;20029;-86
2021/06/11 10:21:37;;;;;;;16.37;4.40;;;;;;;;;;5250922;27;20050;-85
2021/06/11 10:24:09;;;;;;;16.58;4.60;;;;;;;;;;5247847;27;20054;-85
2021/06/11 10:26:41;;;;;;;15.95;4.50;;;;;;;;;;5249100;27;20080;-85
2021/06/11 10:29:16;;;;;;;15.07;4.25;;;;;;;;;;5247451;27;20029;-85
2021/06/11 10:31:48;;;;;;;15.10;4.10;;;;;;;;;;5245708;27;20392;-85
2021/06/11 10:34:42;;;;;;;16.12;4.12;;;;;;;;;;5222887;27;20064;-85
2021/06/11 10:37:31;;;;;;;17.98;4.65;;;;;;;;;;5246651;27;20055;-85
2021/06/11 10:40:21;;;;;;;16.52;4.18;;;;;;;;;;5248491;27;20027;-85
2021/06/11 10:42:52;;;;;;;14.50;4.12;;;;;;;;;;5249003;27;20030;-85
2021/06/11 10:45:43;;;;;;;22.02;5.00;;;;;;;;;;5251397;27;20369;-85
2021/06/11 10:48:14;;;;;;;16.33;4.47;;;;;;;;;;5251764;27;20106;-85
2021/06/11 10:50:45;;;;;;;14.60;3.70;;;;;;;;;;5231073;27;20085;-85
2021/06/11 10:53:31;;;;;;;16.52;4.37;;;;;;;;;;5253068;27;20047;-85
2021/06/11 10:56:12;;;;;;;18.08;4.50;;;;;;;;;;5251438;27;20018;-85
2021/06/11 10:58:46;;;;;;;14.53;4.50;;;;;;;;;;5245523;27;20835;-85
2021/06/11 11:01:27;;;;;;;14.52;4.18;;;;;;;;;;5246261;27;20030;-85
2021/06/11 11:04:19;;;;;;;17.37;4.28;;;;;;;;;;5242181;27;20050;-85
2021/06/11 11:06:51;;;;;;;15.02;3.75;;;;;;;;;;5187645;27;20053;-84
2021/06/11 11:09:21;;;;;;;17.37;4.30;;;;;;;;;;5245338;27;20237;-84
2021/06/11 11:11:59;;;;;;;15.23;3.92;;;;;;;;;;5248541;27;20030;-86
2021/06/11 11:14:37;;;;;;;18.42;4.35;;;;;;;;;;5247530;27;20043;-84
2021/06/11 11:17:06;;;;;;;15.98;3.67;;;;;;;;;;5222935;27;20354;-88
2021/06/11 11:19:58;;;;;;;16.75;4.35;;;;;;;;;;5222025;27;20107;-85
2021/06/11 11:22:29;;;;;;;15.23;4.03;;;;;;;;;;5215949;27;20076;-85
2021/06/11 11:25:02;;;;;;;17.58;4.10;;;;;;;;;;5239977;27;20622;-87
2021/06/11 11:27:34;;;;;;;11.98;3.42;;;;;;;;;;5245661;27;20025;-86
2021/06/11 11:30:06;;;;;;;22.42;4.40;;;;;;;;;;5252111;27;20049;-86
2021/06/11 11:32:38;;;;;;;14.13;4.00;;;;;;;;;;5232956;27;20062;-86
2021/06/11 11:35:09;;;;;;;17.80;4.30;;;;;;;;;;5253756;27;20072;-86
2021/06/11 11:37:40;;;;;;;17.80;3.87;;;;;;;;;;5246930;27;20054;-87
2021/06/11 11:40:11;;;;;;;15.45;4.47;;;;;;;;;;5232397;27;20180;-86
2021/06/11 11:42:43;;;;;;;18.05;4.22;;;;;;;;;;5247211;27;20311;-86
2021/06/11 11:45:14;;;;;;;14.95;4.03;;;;;;;;;;5254210;27;20042;-86
2021/06/11 11:47:46;;;;;;;12.35;3.75;;;;;;;;;;5251982;27;20060;-86
2021/06/11 11:50:17;;;;;;;15.15;3.65;;;;;;;;;;5254288;27;20347;-86
2021/06/11 11:52:48;;;;;;;22.85;3.92;;;;;;;;;;5253218;27;20840;-86
2021/06/11 11:55:20;;;;;;;15.50;3.87;;;;;;;;;;5256398;27;20028;-87
2021/06/11 11:57:52;;;;;;;17.95;3.87;;;;;;;;;;5249480;27;20054;-87
2021/06/11 12:00:23;;;;;;;14.63;4.40;;;;;;;;;;5251043;27;20439;-87
2021/06/11 12:02:56;;;;;;;10.88;3.15;;;;;;;;;;5254301;27;20567;-87
2021/06/11 12:05:28;;;;;;;19.30;3.95;;;;;;;;;;5252690;27;20061;-86
2021/06/11 12:08:20;;;;;;;13.80;3.83;;;;;;;;;;5253525;27;20044;-86
2021/06/11 12:10:57;;;;;;;19.45;4.03;;;;;;;;;;5208253;27;20449;-86
2021/06/11 12:13:29;;;;;;;19.12;4.00;;;;;;;;;;5241189;27;20057;-85
2021/06/11 12:16:02;;;;;;;14.63;3.50;;;;;;;;;;5242315;27;20053;-85
2021/06/11 12:18:35;;;;;;;15.38;3.83;;;;;;;;;;5241145;27;20029;-86
2021/06/11 12:21:04;;;;;;;13.10;3.78;;;;;;;;;;5222222;27;20038;-86
2021/06/11 12:23:38;;;;;;;12.37;4.00;;;;;;;;;;5240197;27;20065;-85
2021/06/11 12:26:08;;;;;;;19.30;4.20;;;;;;;;;;5242745;27;20060;-86
2021/06/11 12:28:40;;;;;;;16.90;4.00;;;;;;;;;;5244887;27;20049;-85
2021/06/11 12:31:11;;;;;;;14.25;4.00;;;;;;;;;;5246652;27;20877;-85
2021/06/11 12:33:43;;;;;;;31.45;5.35;;;;;;;;;;5243783;27;20640;-87
2021/06/11 12:36:13;;;;;;;14.98;4.00;;;;;;;;;;5227126;27;20059;-86
2021/06/11 12:38:45;;;;;;;17.40;3.62;;;;;;;;;;5243903;27;20056;-87
2021/06/11 12:41:16;;;;;;;16.92;4.12;;;;;;;;;;5245917;27;20002;-85
2021/06/11 12:46:39;;;;;;;15.15;4.18;;;;;;;;;;5244062;27;20554;-86
2021/06/11 12:49:12;;;;;;;21.33;4.65;;;;;;;;;;5236877;27;20049;-84
2021/06/11 12:51:42;;;;;;;17.40;4.28;;;;;;;;;;5247404;27;20338;-85
2021/06/11 12:54:14;;;;;;;17.62;4.32;;;;;;;;;;5243682;27;20058;-85
2021/06/11 12:56:45;;;;;;;15.38;4.10;;;;;;;;;;5241992;27;20050;-86
2021/06/11 12:59:14;;;;;;;17.90;4.03;;;;;;;;;;5240179;27;20022;-85
2021/06/11 13:01:45;;;;;;;17.35;3.97;;;;;;;;;;5218204;27;20055;-86
2021/06/11 13:04:16;;;;;;;14.52;4.12;;;;;;;;;;5244835;27;20025;-86
2021/06/11 13:06:48;;;;;;;18.92;4.07;;;;;;;;;;5224720;27;20389;-85
2021/06/11 13:09:19;;;;;;;15.90;3.55;;;;;;;;;;5245721;27;20037;-85
2021/06/11 13:11:50;;;;;;;17.77;4.47;;;;;;;;;;5247197;27;20089;-88
2021/06/11 13:14:21;;;;;;;13.38;3.80;;;;;;;;;;5240858;27;20022;-85
2021/06/11 13:16:53;;;;;;;17.00;3.92;;;;;;;;;;5224446;27;20339;-85
2021/06/11 13:19:24;;;;;;;17.35;4.18;;;;;;;;;;5243032;27;20045;-85
2021/06/11 13:21:55;;;;;;;29.02;4.78;;;;;;;;;;5243677;27;20040;-85
2021/06/11 13:24:25;;;;;;;14.80;3.87;;;;;;;;;;5241689;27;20085;-85
2021/06/11 13:26:56;;;;;;;17.48;4.07;;;;;;;;;;5241942;27;20473;-85
2021/06/11 13:29:27;;;;;;;16.33;4.25;;;;;;;;;;5241686;27;20060;-85
2021/06/11 13:31:58;;;;;;;16.65;3.92;;;;;;;;;;5223216;27;20526;-85
2021/06/11 13:34:30;;;;;;;17.45;4.12;;;;;;;;;;5240033;27;20447;-85
2021/06/11 13:37:01;;;;;;;15.05;3.70;;;;;;;;;;5240057;27;20482;-86
2021/06/11 13:39:30;;;;;;;13.50;3.05;;;;;;;;;;5238454;27;20967;-86
2021/06/11 13:42:01;;;;;;;15.95;3.15;;;;;;;;;;5237366;27;20030;-85
2021/06/11 13:44:31;;;;;;;15.00;3.95;;;;;;;;;;5241617;27;20066;-85
2021/06/11 13:47:00;;;;;;;16.05;3.55;;;;;;;;;;5222861;27;20113;-85
2021/06/11 13:49:32;;;;;;;12.80;3.50;;;;;;;;;;5248306;27;20041;-85
2021/06/11 13:52:05;;;;;;;21.58;3.62;;;;;;;;;;5242470;27;20061;-85
2021/06/11 13:54:36;;;;;;;11.38;2.72;;;;;;;;;;5244769;27;20032;-85
2021/06/11 13:57:07;;;;;;;12.95;3.47;;;;;;;;;;5242088;27;20026;-85
2021/06/11 13:59:38;;;;;;;24.08;4.43;;;;;;;;;;5243044;27;20084;-85
2021/06/11 14:02:09;;;;;;;14.15;3.65;;;;;;;;;;5239034;27;20088;-85
2021/06/11 14:04:41;;;;;;;15.52;3.05;;;;;;;;;;5242821;27;20060;-85
2021/06/11 14:07:11;;;;;;;17.27;3.25;;;;;;;;;;5244542;27;20219;-85
2021/06/11 14:09:42;;;;;;;17.85;3.25;;;;;;;;;;5247516;27;20094;-85
2021/06/11 14:12:13;;;;;;;19.17;3.90;;;;;;;;;;5245721;27;20022;-85
2021/06/11 14:14:45;;;;;;;26.87;4.75;;;;;;;;;;5243081;27;20034;-86
2021/06/11 14:17:16;;;;;;;19.85;4.10;;;;;;;;;;5238881;27;20052;-85
2021/06/11 14:19:47;;;;;;;16.87;4.40;;;;;;;;;;5241446;27;20444;-85
2021/06/11 14:22:18;;;;;;;17.65;3.65;;;;;;;;;;5239791;27;20053;-85
2021/06/11 14:24:50;;;;;;;14.87;3.55;;;;;;;;;;5238274;27;20065;-85
2021/06/11 14:27:24;;;;;;;18.37;3.55;;;;;;;;;;5233407;27;20109;-86
2021/06/11 14:29:57;;;;;;;16.98;3.85;;;;;;;;;;5231575;27;20029;-86
2021/06/11 14:32:28;;;;;;;16.50;3.50;;;;;;;;;;5217449;27;20497;-85
2021/06/11 14:34:59;;;;;;;15.48;3.55;;;;;;;;;;5221480;27;20053;-85
2021/06/11 14:37:30;;;;;;;14.02;3.10;;;;;;;;;;5241272;27;20424;-86
2021/06/11 14:40:01;;;;;;;17.40;3.60;;;;;;;;;;5246538;27;20467;-85
2021/06/11 14:42:32;;;;;;;17.60;3.97;;;;;;;;;;5241428;27;20022;-86
2021/06/11 14:45:06;;;;;;;14.32;3.05;;;;;;;;;;5235687;27;20057;-86
2021/06/11 14:47:37;;;;;;;;;;;;;;;;;;5241906;27;20061;-85
2021/06/11 14:50:08;;;;;;;20.55;4.50;;;;;;;;;;5244035;27;19981;-85
2021/06/11 14:52:47;;;;;;;19.05;4.18;;;;;;;;;;5240991;27;20756;-86
2021/06/11 14:55:19;;;;;;;19.00;3.47;;;;;;;;;;5242734;27;20053;-85
2021/06/11 14:57:58;;;;;;;24.40;4.60;;;;;;;;;;5236626;27;20098;-85
2021/06/11 15:00:29;;;;;;;15.07;4.55;;;;;;;;;;5221160;27;20079;-85
2021/06/11 15:03:05;;;;;;;18.75;3.85;;;;;;;;;;5239764;27;20029;-85
2021/06/11 15:05:41;;;;;;;24.42;4.90;;;;;;;;;;5237806;27;20074;-85
2021/06/11 15:08:16;;;;;;;23.35;4.50;;;;;;;;;;5238072;27;20046;-85
2021/06/11 15:10:51;;;;;;;19.85;4.15;;;;;;;;;;5239216;27;20363;-85
2021/06/11 15:13:24;;;;;;;19.70;4.57;;;;;;;;;;5222005;27;20030;-86
2021/06/11 15:15:55;;;;;;;15.52;3.90;;;;;;;;;;5242465;27;20057;-85
2021/06/11 15:18:27;;;;;;;21.55;4.35;;;;;;;;;;5241993;27;20029;-85
2021/06/11 15:20:59;;;;;;;23.15;5.00;;;;;;;;;;5240554;27;20084;-85
2021/06/11 15:23:31;;;;;;;16.50;3.28;;;;;;;;;;5243256;27;20022;-85
2021/06/11 15:26:02;;;;;;;20.37;4.93;;;;;;;;;;5237367;27;20060;-85
2021/06/11 15:28:30;;;;;;;22.25;4.20;;;;;;;;;;5216481;27;20452;-86
2021/06/11 15:31:02;;;;;;;20.00;4.10;;;;;;;;;;5244349;27;20068;-86
2021/06/11 15:33:33;;;;;;;23.02;4.75;;;;;;;;;;5245616;27;20129;-86
2021/06/11 15:36:04;;;;;;;22.10;4.97;;;;;;;;;;5221862;27;20050;-85
2021/06/11 15:38:37;;;;;;;16.25;4.32;;;;;;;;;;5240747;27;20018;-85
2021/06/11 15:41:10;;;;;;;20.85;4.53;;;;;;;;;;5210519;27;20050;-84
2021/06/11 15:43:45;;;;;;;23.55;4.30;;;;;;;;;;5242354;27;20058;-85
2021/06/11 15:46:16;;;;;;;18.33;4.50;;;;;;;;;;5239509;27;20053;-84
2021/06/11 15:48:47;;;;;;;19.40;4.47;;;;;;;;;;5224641;27;20022;-85